sensor_id;sensor_type;location;lat;lon;timestamp;P1;durP1;ratioP1;P2;durP2;ratioP2
17175;SDS011;8703;48.996;9.594;2023-03-24T00:01:04;4.37;;;1.90;;
17175;SDS011;8703;48.996;9.594;2023-03-24T00:03:33;3.87;;;1.83;;
17175;SDS011;8703;48.996;9.594;2023-03-24T00:06:02;3.23;;;2.00;;
17175;SDS011;8703;48.996;9.594;2023-03-24T00:08:31;3.87;;;2.43;;
17175;SDS011;8703;48.996;9.594;2023-03-24T00:11:01;13.67;;;7.27;;
17175;SDS011;8703;48.996;9.594;2023-03-24T00:13:30;8.97;;;3.97;;
17175;SDS011;8703;48.996;9.594;2023-03-24T00:16:02;6.77;;;3.13;;
17175;SDS011;8703;48.996;9.594;2023-03-24T00:18:29;6.87;;;4.50;;
17175;SDS011;8703;48.996;9.594;2023-03-24T00:20:58;7.73;;;5.10;;
17175;SDS011;8703;48.996;9.594;2023-03-24T00:23:26;6.97;;;3.47;;
17175;SDS011;8703;48.996;9.594;2023-03-24T00:25:59;7.80;;;5.40;;
17175;SDS011;8703;48.996;9.594;2023-03-24T00:28:27;24.00;;;14.27;;
17175;SDS011;8703;48.996;9.594;2023-03-24T00:30:57;3.30;;;2.57;;
17175;SDS011;8703;48.996;9.594;2023-03-24T00:33:26;3.30;;;2.17;;
17175;SDS011;8703;48.996;9.594;2023-03-24T00:35:56;4.33;;;2.50;;
17175;SDS011;8703;48.996;9.594;2023-03-24T00:38:25;3.57;;;2.53;;
17175;SDS011;8703;48.996;9.594;2023-03-24T00:40:53;6.70;;;4.57;;
17175;SDS011;8703;48.996;9.594;2023-03-24T00:43:20;7.20;;;3.30;;
17175;SDS011;8703;48.996;9.594;2023-03-24T00:45:48;5.23;;;2.40;;
17175;SDS011;8703;48.996;9.594;2023-03-24T00:48:16;5.57;;;4.20;;
17175;SDS011;8703;48.996;9.594;2023-03-24T00:50:44;3.97;;;2.83;;
17175;SDS011;8703;48.996;9.594;2023-03-24T00:53:14;3.87;;;2.57;;
17175;SDS011;8703;48.996;9.594;2023-03-24T00:55:43;8.80;;;5.50;;
17175;SDS011;8703;48.996;9.594;2023-03-24T00:58:12;6.33;;;3.80;;
17175;SDS011;8703;48.996;9.594;2023-03-24T01:00:42;6.47;;;3.50;;
17175;SDS011;8703;48.996;9.594;2023-03-24T01:03:09;7.27;;;2.87;;
17175;SDS011;8703;48.996;9.594;2023-03-24T01:05:37;6.80;;;4.07;;
17175;SDS011;8703;48.996;9.594;2023-03-24T01:08:05;5.53;;;3.50;;
17175;SDS011;8703;48.996;9.594;2023-03-24T01:10:36;5.20;;;2.40;;
17175;SDS011;8703;48.996;9.594;2023-03-24T01:13:14;4.97;;;2.87;;
17175;SDS011;8703;48.996;9.594;2023-03-24T01:15:42;3.87;;;2.90;;
17175;SDS011;8703;48.996;9.594;2023-03-24T01:18:09;4.33;;;2.13;;
17175;SDS011;8703;48.996;9.594;2023-03-24T01:20:39;3.20;;;2.73;;
17175;SDS011;8703;48.996;9.594;2023-03-24T01:23:10;4.40;;;2.63;;
17175;SDS011;8703;48.996;9.594;2023-03-24T01:25:40;4.17;;;2.77;;
17175;SDS011;8703;48.996;9.594;2023-03-24T01:28:09;4.33;;;2.50;;
17175;SDS011;8703;48.996;9.594;2023-03-24T01:30:37;9.30;;;5.60;;
17175;SDS011;8703;48.996;9.594;2023-03-24T01:33:05;3.47;;;2.53;;
17175;SDS011;8703;48.996;9.594;2023-03-24T01:35:33;5.00;;;3.60;;
17175;SDS011;8703;48.996;9.594;2023-03-24T01:38:03;6.00;;;3.10;;
17175;SDS011;8703;48.996;9.594;2023-03-24T01:40:32;7.27;;;3.90;;
17175;SDS011;8703;48.996;9.594;2023-03-24T01:43:03;5.43;;;2.60;;
17175;SDS011;8703;48.996;9.594;2023-03-24T01:45:40;5.50;;;2.70;;
17175;SDS011;8703;48.996;9.594;2023-03-24T01:48:12;6.30;;;3.80;;
17175;SDS011;8703;48.996;9.594;2023-03-24T01:50:41;4.23;;;2.60;;
17175;SDS011;8703;48.996;9.594;2023-03-24T01:53:11;4.07;;;2.73;;
17175;SDS011;8703;48.996;9.594;2023-03-24T01:55:39;11.10;;;6.20;;
17175;SDS011;8703;48.996;9.594;2023-03-24T01:58:09;6.37;;;3.33;;
17175;SDS011;8703;48.996;9.594;2023-03-24T02:00:36;8.00;;;3.87;;
17175;SDS011;8703;48.996;9.594;2023-03-24T02:03:07;5.17;;;2.67;;
17175;SDS011;8703;48.996;9.594;2023-03-24T02:05:38;5.27;;;2.50;;
17175;SDS011;8703;48.996;9.594;2023-03-24T02:08:09;7.10;;;2.80;;
17175;SDS011;8703;48.996;9.594;2023-03-24T02:10:39;4.80;;;2.53;;
17175;SDS011;8703;48.996;9.594;2023-03-24T02:13:07;8.83;;;4.83;;
17175;SDS011;8703;48.996;9.594;2023-03-24T02:15:37;8.30;;;4.57;;
17175;SDS011;8703;48.996;9.594;2023-03-24T02:18:12;10.00;;;4.17;;
17175;SDS011;8703;48.996;9.594;2023-03-24T02:20:51;5.43;;;2.87;;
17175;SDS011;8703;48.996;9.594;2023-03-24T02:26:54;6.83;;;2.30;;
17175;SDS011;8703;48.996;9.594;2023-03-24T02:32:53;5.63;;;2.40;;
17175;SDS011;8703;48.996;9.594;2023-03-24T02:35:45;4.43;;;2.33;;
17175;SDS011;8703;48.996;9.594;2023-03-24T02:38:31;2.83;;;2.13;;
17175;SDS011;8703;48.996;9.594;2023-03-24T02:41:07;4.90;;;2.37;;
17175;SDS011;8703;48.996;9.594;2023-03-24T02:43:41;3.93;;;2.43;;
17175;SDS011;8703;48.996;9.594;2023-03-24T02:46:13;4.07;;;2.27;;
17175;SDS011;8703;48.996;9.594;2023-03-24T02:48:49;2.83;;;2.10;;
17175;SDS011;8703;48.996;9.594;2023-03-24T02:51:26;4.40;;;1.90;;
17175;SDS011;8703;48.996;9.594;2023-03-24T02:53:58;3.13;;;2.50;;
17175;SDS011;8703;48.996;9.594;2023-03-24T02:56:32;4.67;;;2.90;;
17175;SDS011;8703;48.996;9.594;2023-03-24T02:59:03;8.20;;;4.50;;
17175;SDS011;8703;48.996;9.594;2023-03-24T03:01:31;4.93;;;3.30;;
17175;SDS011;8703;48.996;9.594;2023-03-24T03:04:02;5.07;;;2.53;;
17175;SDS011;8703;48.996;9.594;2023-03-24T03:06:33;3.47;;;2.50;;
17175;SDS011;8703;48.996;9.594;2023-03-24T03:09:04;12.03;;;7.60;;
17175;SDS011;8703;48.996;9.594;2023-03-24T03:11:34;3.27;;;2.70;;
17175;SDS011;8703;48.996;9.594;2023-03-24T03:14:04;6.47;;;2.87;;
17175;SDS011;8703;48.996;9.594;2023-03-24T03:16:34;3.20;;;2.30;;
17175;SDS011;8703;48.996;9.594;2023-03-24T03:19:04;3.77;;;2.53;;
17175;SDS011;8703;48.996;9.594;2023-03-24T03:21:37;5.73;;;3.50;;
17175;SDS011;8703;48.996;9.594;2023-03-24T03:24:08;4.73;;;2.87;;
17175;SDS011;8703;48.996;9.594;2023-03-24T03:26:40;6.23;;;3.30;;
17175;SDS011;8703;48.996;9.594;2023-03-24T03:29:10;4.83;;;3.40;;
17175;SDS011;8703;48.996;9.594;2023-03-24T03:31:42;3.60;;;2.30;;
17175;SDS011;8703;48.996;9.594;2023-03-24T03:34:15;4.60;;;2.43;;
17175;SDS011;8703;48.996;9.594;2023-03-24T03:36:47;3.20;;;2.60;;
17175;SDS011;8703;48.996;9.594;2023-03-24T03:39:19;2.83;;;2.27;;
17175;SDS011;8703;48.996;9.594;2023-03-24T03:41:50;3.63;;;2.40;;
17175;SDS011;8703;48.996;9.594;2023-03-24T03:44:18;3.97;;;2.33;;
17175;SDS011;8703;48.996;9.594;2023-03-24T03:46:45;6.70;;;2.57;;
17175;SDS011;8703;48.996;9.594;2023-03-24T03:49:13;3.13;;;2.33;;
17175;SDS011;8703;48.996;9.594;2023-03-24T03:51:40;4.27;;;2.20;;
17175;SDS011;8703;48.996;9.594;2023-03-24T03:54:09;3.53;;;2.40;;
17175;SDS011;8703;48.996;9.594;2023-03-24T03:56:37;3.37;;;2.33;;
17175;SDS011;8703;48.996;9.594;2023-03-24T03:59:06;3.57;;;2.20;;
17175;SDS011;8703;48.996;9.594;2023-03-24T04:01:35;3.83;;;2.47;;
17175;SDS011;8703;48.996;9.594;2023-03-24T04:04:08;6.37;;;2.53;;
17175;SDS011;8703;48.996;9.594;2023-03-24T04:06:45;5.90;;;4.27;;
17175;SDS011;8703;48.996;9.594;2023-03-24T04:09:24;14.47;;;9.60;;
17175;SDS011;8703;48.996;9.594;2023-03-24T04:15:19;2.53;;;2.30;;
17175;SDS011;8703;48.996;9.594;2023-03-24T04:17:58;3.87;;;2.23;;
17175;SDS011;8703;48.996;9.594;2023-03-24T04:20:38;4.20;;;2.10;;
17175;SDS011;8703;48.996;9.594;2023-03-24T04:23:13;4.30;;;2.03;;
17175;SDS011;8703;48.996;9.594;2023-03-24T04:25:50;4.07;;;3.10;;
17175;SDS011;8703;48.996;9.594;2023-03-24T04:28:23;4.87;;;3.20;;
17175;SDS011;8703;48.996;9.594;2023-03-24T04:30:57;4.00;;;2.80;;
17175;SDS011;8703;48.996;9.594;2023-03-24T04:33:28;5.63;;;3.00;;
17175;SDS011;8703;48.996;9.594;2023-03-24T04:36:04;4.30;;;2.70;;
17175;SDS011;8703;48.996;9.594;2023-03-24T04:38:43;5.03;;;3.23;;
17175;SDS011;8703;48.996;9.594;2023-03-24T04:41:11;3.70;;;2.80;;
17175;SDS011;8703;48.996;9.594;2023-03-24T04:43:42;3.33;;;2.70;;
17175;SDS011;8703;48.996;9.594;2023-03-24T04:59:55;3.10;;;2.73;;
17175;SDS011;8703;48.996;9.594;2023-03-24T05:02:23;5.20;;;2.40;;
17175;SDS011;8703;48.996;9.594;2023-03-24T05:04:51;4.43;;;2.33;;
17175;SDS011;8703;48.996;9.594;2023-03-24T05:07:19;5.17;;;2.73;;
17175;SDS011;8703;48.996;9.594;2023-03-24T05:09:49;6.07;;;3.80;;
17175;SDS011;8703;48.996;9.594;2023-03-24T05:12:17;3.73;;;3.23;;
17175;SDS011;8703;48.996;9.594;2023-03-24T05:14:50;7.90;;;3.47;;
17175;SDS011;8703;48.996;9.594;2023-03-24T05:17:19;4.47;;;3.27;;
17175;SDS011;8703;48.996;9.594;2023-03-24T05:19:46;4.83;;;3.13;;
17175;SDS011;8703;48.996;9.594;2023-03-24T05:22:13;6.53;;;2.87;;
17175;SDS011;8703;48.996;9.594;2023-03-24T05:24:41;3.03;;;2.77;;
17175;SDS011;8703;48.996;9.594;2023-03-24T05:27:08;3.83;;;3.00;;
17175;SDS011;8703;48.996;9.594;2023-03-24T05:29:35;4.30;;;2.87;;
17175;SDS011;8703;48.996;9.594;2023-03-24T05:32:03;4.30;;;2.70;;
17175;SDS011;8703;48.996;9.594;2023-03-24T05:34:32;3.87;;;2.70;;
17175;SDS011;8703;48.996;9.594;2023-03-24T05:36:59;4.10;;;2.70;;
17175;SDS011;8703;48.996;9.594;2023-03-24T05:39:27;4.37;;;2.73;;
17175;SDS011;8703;48.996;9.594;2023-03-24T05:41:54;3.83;;;2.67;;
17175;SDS011;8703;48.996;9.594;2023-03-24T05:44:21;4.77;;;2.47;;
17175;SDS011;8703;48.996;9.594;2023-03-24T05:46:49;3.37;;;2.40;;
17175;SDS011;8703;48.996;9.594;2023-03-24T05:49:16;4.00;;;2.90;;
17175;SDS011;8703;48.996;9.594;2023-03-24T05:51:45;3.13;;;2.20;;
17175;SDS011;8703;48.996;9.594;2023-03-24T05:54:12;3.93;;;2.00;;
17175;SDS011;8703;48.996;9.594;2023-03-24T05:56:40;2.97;;;2.13;;
17175;SDS011;8703;48.996;9.594;2023-03-24T05:59:07;2.90;;;2.43;;
17175;SDS011;8703;48.996;9.594;2023-03-24T06:01:36;4.10;;;2.37;;
17175;SDS011;8703;48.996;9.594;2023-03-24T06:04:03;4.07;;;2.20;;
17175;SDS011;8703;48.996;9.594;2023-03-24T06:06:30;3.03;;;2.20;;
17175;SDS011;8703;48.996;9.594;2023-03-24T06:08:59;3.57;;;2.60;;
17175;SDS011;8703;48.996;9.594;2023-03-24T06:11:29;3.57;;;2.70;;
17175;SDS011;8703;48.996;9.594;2023-03-24T06:13:56;3.93;;;2.87;;
17175;SDS011;8703;48.996;9.594;2023-03-24T06:16:24;10.80;;;5.40;;
17175;SDS011;8703;48.996;9.594;2023-03-24T06:18:52;4.97;;;3.03;;
17175;SDS011;8703;48.996;9.594;2023-03-24T06:21:20;3.97;;;2.60;;
17175;SDS011;8703;48.996;9.594;2023-03-24T06:23:54;3.70;;;2.80;;
17175;SDS011;8703;48.996;9.594;2023-03-24T06:26:25;3.40;;;2.50;;
17175;SDS011;8703;48.996;9.594;2023-03-24T06:28:54;5.87;;;3.50;;
17175;SDS011;8703;48.996;9.594;2023-03-24T06:31:22;5.73;;;3.27;;
17175;SDS011;8703;48.996;9.594;2023-03-24T06:33:53;3.77;;;3.23;;
17175;SDS011;8703;48.996;9.594;2023-03-24T06:36:20;6.07;;;3.33;;
17175;SDS011;8703;48.996;9.594;2023-03-24T06:38:50;8.87;;;3.67;;
17175;SDS011;8703;48.996;9.594;2023-03-24T06:41:17;7.23;;;3.97;;
17175;SDS011;8703;48.996;9.594;2023-03-24T06:43:46;6.30;;;3.63;;
17175;SDS011;8703;48.996;9.594;2023-03-24T06:46:14;4.53;;;3.37;;
17175;SDS011;8703;48.996;9.594;2023-03-24T06:48:41;6.27;;;3.90;;
17175;SDS011;8703;48.996;9.594;2023-03-24T06:51:08;5.67;;;4.13;;
17175;SDS011;8703;48.996;9.594;2023-03-24T06:53:36;5.50;;;3.80;;
17175;SDS011;8703;48.996;9.594;2023-03-24T06:56:05;6.00;;;3.97;;
17175;SDS011;8703;48.996;9.594;2023-03-24T06:58:32;4.93;;;4.03;;
17175;SDS011;8703;48.996;9.594;2023-03-24T07:01:02;5.27;;;4.33;;
17175;SDS011;8703;48.996;9.594;2023-03-24T07:03:29;6.73;;;4.37;;
17175;SDS011;8703;48.996;9.594;2023-03-24T07:05:57;7.23;;;4.80;;
17175;SDS011;8703;48.996;9.594;2023-03-24T07:08:25;6.67;;;4.10;;
17175;SDS011;8703;48.996;9.594;2023-03-24T07:10:52;4.73;;;3.33;;
17175;SDS011;8703;48.996;9.594;2023-03-24T07:13:20;2.97;;;2.50;;
17175;SDS011;8703;48.996;9.594;2023-03-24T07:15:47;5.43;;;3.40;;
17175;SDS011;8703;48.996;9.594;2023-03-24T07:18:16;5.23;;;4.07;;
17175;SDS011;8703;48.996;9.594;2023-03-24T07:20:43;6.87;;;4.43;;
17175;SDS011;8703;48.996;9.594;2023-03-24T07:23:11;6.53;;;4.90;;
17175;SDS011;8703;48.996;9.594;2023-03-24T07:25:38;8.83;;;5.73;;
17175;SDS011;8703;48.996;9.594;2023-03-24T07:28:06;5.47;;;4.43;;
17175;SDS011;8703;48.996;9.594;2023-03-24T07:30:33;7.60;;;5.07;;
17175;SDS011;8703;48.996;9.594;2023-03-24T07:33:01;7.00;;;4.80;;
17175;SDS011;8703;48.996;9.594;2023-03-24T07:35:30;5.37;;;4.70;;
17175;SDS011;8703;48.996;9.594;2023-03-24T07:37:58;8.10;;;5.00;;
17175;SDS011;8703;48.996;9.594;2023-03-24T07:40:26;6.63;;;5.47;;
17175;SDS011;8703;48.996;9.594;2023-03-24T07:42:54;8.90;;;6.57;;
17175;SDS011;8703;48.996;9.594;2023-03-24T07:45:23;12.90;;;8.13;;
17175;SDS011;8703;48.996;9.594;2023-03-24T07:47:51;11.77;;;7.30;;
17175;SDS011;8703;48.996;9.594;2023-03-24T07:50:18;11.70;;;7.40;;
17175;SDS011;8703;48.996;9.594;2023-03-24T07:52:48;17.73;;;8.60;;
17175;SDS011;8703;48.996;9.594;2023-03-24T07:55:15;13.27;;;7.60;;
17175;SDS011;8703;48.996;9.594;2023-03-24T07:57:46;11.87;;;7.43;;
17175;SDS011;8703;48.996;9.594;2023-03-24T08:00:15;10.73;;;7.80;;
17175;SDS011;8703;48.996;9.594;2023-03-24T08:02:44;15.77;;;9.73;;
17175;SDS011;8703;48.996;9.594;2023-03-24T08:05:12;10.50;;;7.87;;
17175;SDS011;8703;48.996;9.594;2023-03-24T08:07:42;9.50;;;6.20;;
17175;SDS011;8703;48.996;9.594;2023-03-24T08:10:15;8.33;;;6.83;;
17175;SDS011;8703;48.996;9.594;2023-03-24T08:12:43;9.20;;;5.03;;
17175;SDS011;8703;48.996;9.594;2023-03-24T08:15:10;6.97;;;5.10;;
17175;SDS011;8703;48.996;9.594;2023-03-24T08:17:38;6.87;;;5.53;;
17175;SDS011;8703;48.996;9.594;2023-03-24T08:20:07;8.77;;;4.77;;
17175;SDS011;8703;48.996;9.594;2023-03-24T08:22:39;6.23;;;4.60;;
17175;SDS011;8703;48.996;9.594;2023-03-24T08:25:07;6.37;;;4.93;;
17175;SDS011;8703;48.996;9.594;2023-03-24T08:27:36;5.83;;;4.80;;
17175;SDS011;8703;48.996;9.594;2023-03-24T08:30:04;6.23;;;4.20;;
17175;SDS011;8703;48.996;9.594;2023-03-24T08:32:32;5.73;;;3.70;;
17175;SDS011;8703;48.996;9.594;2023-03-24T08:35:00;5.33;;;3.43;;
17175;SDS011;8703;48.996;9.594;2023-03-24T08:37:29;5.97;;;3.80;;
17175;SDS011;8703;48.996;9.594;2023-03-24T08:39:56;5.53;;;3.90;;
17175;SDS011;8703;48.996;9.594;2023-03-24T08:42:37;7.00;;;5.07;;
17175;SDS011;8703;48.996;9.594;2023-03-24T08:45:05;8.27;;;5.53;;
17175;SDS011;8703;48.996;9.594;2023-03-24T08:47:33;6.43;;;4.40;;
17175;SDS011;8703;48.996;9.594;2023-03-24T08:50:01;6.57;;;3.90;;
17175;SDS011;8703;48.996;9.594;2023-03-24T08:52:28;6.97;;;4.00;;
17175;SDS011;8703;48.996;9.594;2023-03-24T08:54:56;6.37;;;3.03;;
17175;SDS011;8703;48.996;9.594;2023-03-24T08:57:23;3.83;;;2.77;;
17175;SDS011;8703;48.996;9.594;2023-03-24T08:59:52;2.87;;;2.57;;
17175;SDS011;8703;48.996;9.594;2023-03-24T09:02:19;3.47;;;2.33;;
17175;SDS011;8703;48.996;9.594;2023-03-24T09:04:47;2.40;;;2.20;;
17175;SDS011;8703;48.996;9.594;2023-03-24T09:07:17;2.47;;;2.20;;
17175;SDS011;8703;48.996;9.594;2023-03-24T09:09:45;2.57;;;2.03;;
17175;SDS011;8703;48.996;9.594;2023-03-24T09:12:12;2.80;;;2.50;;
17175;SDS011;8703;48.996;9.594;2023-03-24T09:14:40;3.20;;;2.00;;
17175;SDS011;8703;48.996;9.594;2023-03-24T09:17:09;3.33;;;2.30;;
17175;SDS011;8703;48.996;9.594;2023-03-24T09:19:36;2.47;;;2.27;;
17175;SDS011;8703;48.996;9.594;2023-03-24T09:22:03;3.27;;;2.63;;
17175;SDS011;8703;48.996;9.594;2023-03-24T09:24:31;2.60;;;2.30;;
17175;SDS011;8703;48.996;9.594;2023-03-24T09:26:58;3.93;;;2.73;;
17175;SDS011;8703;48.996;9.594;2023-03-24T09:29:26;2.60;;;2.40;;
17175;SDS011;8703;48.996;9.594;2023-03-24T09:31:54;2.70;;;2.40;;
17175;SDS011;8703;48.996;9.594;2023-03-24T09:34:23;4.23;;;2.70;;
17175;SDS011;8703;48.996;9.594;2023-03-24T09:36:51;2.73;;;2.40;;
17175;SDS011;8703;48.996;9.594;2023-03-24T09:39:18;4.00;;;2.80;;
17175;SDS011;8703;48.996;9.594;2023-03-24T09:41:46;2.37;;;2.17;;
17175;SDS011;8703;48.996;9.594;2023-03-24T09:44:16;2.43;;;2.17;;
17175;SDS011;8703;48.996;9.594;2023-03-24T09:46:49;2.73;;;2.30;;
17175;SDS011;8703;48.996;9.594;2023-03-24T09:49:20;2.40;;;2.20;;
17175;SDS011;8703;48.996;9.594;2023-03-24T09:51:52;2.53;;;2.13;;
17175;SDS011;8703;48.996;9.594;2023-03-24T09:54:25;3.97;;;2.30;;
17175;SDS011;8703;48.996;9.594;2023-03-24T09:56:54;4.30;;;2.30;;
17175;SDS011;8703;48.996;9.594;2023-03-24T09:59:24;2.90;;;2.30;;
17175;SDS011;8703;48.996;9.594;2023-03-24T10:01:57;3.00;;;2.20;;
17175;SDS011;8703;48.996;9.594;2023-03-24T10:04:26;7.43;;;4.10;;
17175;SDS011;8703;48.996;9.594;2023-03-24T10:06:56;3.00;;;2.43;;
17175;SDS011;8703;48.996;9.594;2023-03-24T10:09:27;3.53;;;2.03;;
17175;SDS011;8703;48.996;9.594;2023-03-24T10:12:09;2.43;;;2.20;;
17175;SDS011;8703;48.996;9.594;2023-03-24T10:14:49;2.80;;;2.38;;
17175;SDS011;8703;48.996;9.594;2023-03-24T10:17:28;2.30;;;2.10;;
17175;SDS011;8703;48.996;9.594;2023-03-24T10:20:08;1.98;;;1.83;;
17175;SDS011;8703;48.996;9.594;2023-03-24T10:22:43;3.60;;;2.65;;
17175;SDS011;8703;48.996;9.594;2023-03-24T10:25:17;2.20;;;2.00;;
17175;SDS011;8703;48.996;9.594;2023-03-24T10:27:49;2.27;;;1.80;;
17175;SDS011;8703;48.996;9.594;2023-03-24T10:30:19;3.45;;;1.95;;
17175;SDS011;8703;48.996;9.594;2023-03-24T10:32:49;3.40;;;1.88;;
17175;SDS011;8703;48.996;9.594;2023-03-24T10:35:21;3.63;;;1.80;;
17175;SDS011;8703;48.996;9.594;2023-03-24T10:37:52;2.35;;;1.90;;
17175;SDS011;8703;48.996;9.594;2023-03-24T10:40:24;2.40;;;1.88;;
17175;SDS011;8703;48.996;9.594;2023-03-24T10:42:53;3.55;;;2.70;;
17175;SDS011;8703;48.996;9.594;2023-03-24T10:45:23;2.10;;;1.90;;
17175;SDS011;8703;48.996;9.594;2023-03-24T10:47:52;2.55;;;1.80;;
17175;SDS011;8703;48.996;9.594;2023-03-24T10:50:25;3.17;;;1.90;;
17175;SDS011;8703;48.996;9.594;2023-03-24T10:52:53;2.33;;;1.83;;
17175;SDS011;8703;48.996;9.594;2023-03-24T10:55:21;1.98;;;1.77;;
17175;SDS011;8703;48.996;9.594;2023-03-24T10:57:57;2.00;;;1.63;;
17175;SDS011;8703;48.996;9.594;2023-03-24T11:00:26;2.33;;;1.70;;
17175;SDS011;8703;48.996;9.594;2023-03-24T11:02:56;2.05;;;1.85;;
17175;SDS011;8703;48.996;9.594;2023-03-24T11:05:27;2.63;;;1.92;;
17175;SDS011;8703;48.996;9.594;2023-03-24T11:07:58;2.20;;;1.80;;
17175;SDS011;8703;48.996;9.594;2023-03-24T11:10:37;2.45;;;1.77;;
17175;SDS011;8703;48.996;9.594;2023-03-24T11:13:04;2.30;;;1.73;;
17175;SDS011;8703;48.996;9.594;2023-03-24T11:15:51;1.98;;;1.60;;
17175;SDS011;8703;48.996;9.594;2023-03-24T11:18:20;2.38;;;1.73;;
17175;SDS011;8703;48.996;9.594;2023-03-24T11:20:51;2.20;;;1.77;;
17175;SDS011;8703;48.996;9.594;2023-03-24T11:23:24;2.50;;;1.58;;
17175;SDS011;8703;48.996;9.594;2023-03-24T11:26:00;1.92;;;1.50;;
17175;SDS011;8703;48.996;9.594;2023-03-24T11:28:33;1.70;;;1.58;;
17175;SDS011;8703;48.996;9.594;2023-03-24T11:31:04;1.98;;;1.67;;
17175;SDS011;8703;48.996;9.594;2023-03-24T11:33:33;1.60;;;1.50;;
17175;SDS011;8703;48.996;9.594;2023-03-24T11:36:33;1.50;;;1.40;;
17175;SDS011;8703;48.996;9.594;2023-03-24T11:39:09;1.90;;;1.40;;
17175;SDS011;8703;48.996;9.594;2023-03-24T11:41:40;1.55;;;1.40;;
17175;SDS011;8703;48.996;9.594;2023-03-24T11:44:16;1.83;;;1.25;;
17175;SDS011;8703;48.996;9.594;2023-03-24T11:46:45;1.13;;;1.02;;
17175;SDS011;8703;48.996;9.594;2023-03-24T11:49:17;2.25;;;1.10;;
17175;SDS011;8703;48.996;9.594;2023-03-24T11:51:48;1.10;;;1.00;;
17175;SDS011;8703;48.996;9.594;2023-03-24T11:54:17;1.00;;;0.90;;
17175;SDS011;8703;48.996;9.594;2023-03-24T11:56:46;1.33;;;1.00;;
17175;SDS011;8703;48.996;9.594;2023-03-24T11:59:18;2.60;;;1.15;;
17175;SDS011;8703;48.996;9.594;2023-03-24T12:01:55;1.30;;;1.10;;
17175;SDS011;8703;48.996;9.594;2023-03-24T12:04:28;1.45;;;1.00;;
17175;SDS011;8703;48.996;9.594;2023-03-24T12:07:11;1.05;;;0.80;;
17175;SDS011;8703;48.996;9.594;2023-03-24T12:10:20;1.00;;;0.85;;
17175;SDS011;8703;48.996;9.594;2023-03-24T12:12:55;1.88;;;0.80;;
17175;SDS011;8703;48.996;9.594;2023-03-24T12:15:30;1.10;;;0.90;;
17175;SDS011;8703;48.996;9.594;2023-03-24T12:18:06;1.27;;;0.82;;
17175;SDS011;8703;48.996;9.594;2023-03-24T12:20:51;1.25;;;0.90;;
17175;SDS011;8703;48.996;9.594;2023-03-24T12:23:24;1.17;;;1.00;;
17175;SDS011;8703;48.996;9.594;2023-03-24T12:26:07;1.02;;;0.80;;
17175;SDS011;8703;48.996;9.594;2023-03-24T12:28:50;1.55;;;1.10;;
17175;SDS011;8703;48.996;9.594;2023-03-24T12:31:54;1.00;;;0.80;;
17175;SDS011;8703;48.996;9.594;2023-03-24T12:34:43;0.90;;;0.90;;
17175;SDS011;8703;48.996;9.594;2023-03-24T12:37:32;1.30;;;1.00;;
17175;SDS011;8703;48.996;9.594;2023-03-24T12:40:23;1.00;;;0.90;;
17175;SDS011;8703;48.996;9.594;2023-03-24T12:43:08;1.00;;;0.90;;
17175;SDS011;8703;48.996;9.594;2023-03-24T12:45:41;1.02;;;0.90;;
17175;SDS011;8703;48.996;9.594;2023-03-24T12:48:16;1.30;;;1.00;;
17175;SDS011;8703;48.996;9.594;2023-03-24T12:50:59;1.48;;;0.80;;
17175;SDS011;8703;48.996;9.594;2023-03-24T12:53:37;1.15;;;0.80;;
17175;SDS011;8703;48.996;9.594;2023-03-24T12:56:19;1.00;;;0.85;;
17175;SDS011;8703;48.996;9.594;2023-03-24T12:58:48;1.20;;;1.10;;
17175;SDS011;8703;48.996;9.594;2023-03-24T13:01:18;1.50;;;0.80;;
17175;SDS011;8703;48.996;9.594;2023-03-24T13:03:50;1.25;;;1.10;;
17175;SDS011;8703;48.996;9.594;2023-03-24T13:06:21;0.80;;;0.80;;
17175;SDS011;8703;48.996;9.594;2023-03-24T13:08:53;0.85;;;0.80;;
17175;SDS011;8703;48.996;9.594;2023-03-24T13:11:33;1.92;;;0.88;;
17175;SDS011;8703;48.996;9.594;2023-03-24T13:14:03;2.17;;;0.90;;
17175;SDS011;8703;48.996;9.594;2023-03-24T13:16:37;1.25;;;1.00;;
17175;SDS011;8703;48.996;9.594;2023-03-24T13:19:09;0.88;;;0.80;;
17175;SDS011;8703;48.996;9.594;2023-03-24T13:21:42;1.35;;;0.82;;
17175;SDS011;8703;48.996;9.594;2023-03-24T13:24:17;2.17;;;1.00;;
17175;SDS011;8703;48.996;9.594;2023-03-24T13:26:49;1.52;;;0.90;;
17175;SDS011;8703;48.996;9.594;2023-03-24T13:29:24;1.27;;;0.80;;
17175;SDS011;8703;48.996;9.594;2023-03-24T13:31:58;0.70;;;0.70;;
17175;SDS011;8703;48.996;9.594;2023-03-24T13:34:29;1.45;;;0.75;;
17175;SDS011;8703;48.996;9.594;2023-03-24T13:36:59;1.63;;;0.73;;
17175;SDS011;8703;48.996;9.594;2023-03-24T13:39:29;2.27;;;0.80;;
17175;SDS011;8703;48.996;9.594;2023-03-24T13:41:59;2.03;;;0.80;;
17175;SDS011;8703;48.996;9.594;2023-03-24T13:44:27;4.73;;;1.63;;
17175;SDS011;8703;48.996;9.594;2023-03-24T13:47:05;2.53;;;1.00;;
17175;SDS011;8703;48.996;9.594;2023-03-24T13:49:37;2.33;;;1.03;;
17175;SDS011;8703;48.996;9.594;2023-03-24T13:52:06;3.17;;;1.20;;
17175;SDS011;8703;48.996;9.594;2023-03-24T13:54:47;1.87;;;0.60;;
17175;SDS011;8703;48.996;9.594;2023-03-24T13:57:16;1.90;;;0.90;;
17175;SDS011;8703;48.996;9.594;2023-03-24T13:59:56;2.00;;;1.00;;
17175;SDS011;8703;48.996;9.594;2023-03-24T14:02:42;1.47;;;0.83;;
17175;SDS011;8703;48.996;9.594;2023-03-24T14:08:09;2.70;;;1.23;;
17175;SDS011;8703;48.996;9.594;2023-03-24T14:10:43;2.70;;;1.13;;
17175;SDS011;8703;48.996;9.594;2023-03-24T14:13:20;3.80;;;1.57;;
17175;SDS011;8703;48.996;9.594;2023-03-24T14:19:20;3.80;;;1.67;;
17175;SDS011;8703;48.996;9.594;2023-03-24T14:24:35;3.47;;;1.27;;
17175;SDS011;8703;48.996;9.594;2023-03-24T14:30:14;1.87;;;0.90;;
17175;SDS011;8703;48.996;9.594;2023-03-24T14:32:45;2.67;;;0.90;;
17175;SDS011;8703;48.996;9.594;2023-03-24T14:35:21;2.43;;;0.90;;
17175;SDS011;8703;48.996;9.594;2023-03-24T14:37:51;2.67;;;1.00;;
17175;SDS011;8703;48.996;9.594;2023-03-24T14:40:24;5.97;;;2.63;;
17175;SDS011;8703;48.996;9.594;2023-03-24T14:42:53;2.63;;;1.00;;
17175;SDS011;8703;48.996;9.594;2023-03-24T14:48:30;3.67;;;1.30;;
17175;SDS011;8703;48.996;9.594;2023-03-24T14:51:10;3.63;;;1.50;;
17175;SDS011;8703;48.996;9.594;2023-03-24T14:53:45;3.17;;;1.20;;
17175;SDS011;8703;48.996;9.594;2023-03-24T14:56:14;4.40;;;1.10;;
17175;SDS011;8703;48.996;9.594;2023-03-24T14:58:43;2.43;;;1.00;;
17175;SDS011;8703;48.996;9.594;2023-03-24T15:01:13;2.93;;;0.97;;
17175;SDS011;8703;48.996;9.594;2023-03-24T15:03:42;2.90;;;1.50;;
17175;SDS011;8703;48.996;9.594;2023-03-24T15:06:15;4.13;;;1.20;;
17175;SDS011;8703;48.996;9.594;2023-03-24T15:08:44;4.07;;;1.40;;
17175;SDS011;8703;48.996;9.594;2023-03-24T15:11:15;2.57;;;1.20;;
17175;SDS011;8703;48.996;9.594;2023-03-24T15:13:44;3.47;;;1.77;;
17175;SDS011;8703;48.996;9.594;2023-03-24T15:16:22;3.60;;;1.40;;
17175;SDS011;8703;48.996;9.594;2023-03-24T15:18:51;4.67;;;1.37;;
17175;SDS011;8703;48.996;9.594;2023-03-24T15:21:30;4.90;;;1.03;;
17175;SDS011;8703;48.996;9.594;2023-03-24T15:24:00;2.17;;;1.40;;
17175;SDS011;8703;48.996;9.594;2023-03-24T15:26:30;5.43;;;1.40;;
17175;SDS011;8703;48.996;9.594;2023-03-24T15:28:58;2.80;;;2.23;;
17175;SDS011;8703;48.996;9.594;2023-03-24T15:31:28;6.33;;;2.20;;
17175;SDS011;8703;48.996;9.594;2023-03-24T15:34:02;6.40;;;2.00;;
17175;SDS011;8703;48.996;9.594;2023-03-24T15:36:33;3.77;;;1.80;;
17175;SDS011;8703;48.996;9.594;2023-03-24T15:39:14;3.60;;;1.90;;
17175;SDS011;8703;48.996;9.594;2023-03-24T15:41:45;3.70;;;1.90;;
17175;SDS011;8703;48.996;9.594;2023-03-24T15:44:18;3.67;;;2.00;;
17175;SDS011;8703;48.996;9.594;2023-03-24T15:46:48;4.73;;;1.93;;
17175;SDS011;8703;48.996;9.594;2023-03-24T15:49:17;4.20;;;2.00;;
17175;SDS011;8703;48.996;9.594;2023-03-24T15:51:48;2.67;;;2.03;;
17175;SDS011;8703;48.996;9.594;2023-03-24T15:54:20;3.97;;;2.00;;
17175;SDS011;8703;48.996;9.594;2023-03-24T15:56:58;8.33;;;4.80;;
17175;SDS011;8703;48.996;9.594;2023-03-24T15:59:31;5.60;;;2.60;;
17175;SDS011;8703;48.996;9.594;2023-03-24T16:02:09;5.77;;;2.53;;
17175;SDS011;8703;48.996;9.594;2023-03-24T16:04:40;4.03;;;3.13;;